sensor_id;sensor_type;location;lat;lon;timestamp;pressure;altitude;pressure_sealevel;temperature;humidity
3654;BME280;70277;54.302;10.064;2023-05-23T00:01:43;101101.53;;;14.57;76.21
3654;BME280;70277;54.302;10.064;2023-05-23T00:04:10;101096.91;;;14.63;76.25
3654;BME280;70277;54.302;10.064;2023-05-23T00:06:42;101099.13;;;14.71;76.04
3654;BME280;70277;54.302;10.064;2023-05-23T00:09:13;101097.78;;;14.78;74.76
3654;BME280;70277;54.302;10.064;2023-05-23T00:11:40;101095.03;;;14.78;75.42
3654;BME280;70277;54.302;10.064;2023-05-23T00:14:10;101089.34;;;14.90;74.39
3654;BME280;70277;54.302;10.064;2023-05-23T00:16:42;101076.84;;;14.94;75.17
3654;BME280;70277;54.302;10.064;2023-05-23T00:19:11;101078.22;;;14.97;75.26
3654;BME280;70277;54.302;10.064;2023-05-23T00:21:41;101077.09;;;14.93;73.87
3654;BME280;70277;54.302;10.064;2023-05-23T00:24:08;101073.25;;;14.78;74.13
3654;BME280;70277;54.302;10.064;2023-05-23T00:26:35;101065.34;;;14.77;74.65
3654;BME280;70277;54.302;10.064;2023-05-23T00:29:02;101066.72;;;14.74;73.94
3654;BME280;70277;54.302;10.064;2023-05-23T00:31:28;101069.97;;;14.82;75.56
3654;BME280;70277;54.302;10.064;2023-05-23T00:33:55;101062.88;;;14.75;75.46
3654;BME280;70277;54.302;10.064;2023-05-23T00:36:21;101055.53;;;14.71;75.49
3654;BME280;70277;54.302;10.064;2023-05-23T00:38:48;101054.72;;;14.70;76.52
3654;BME280;70277;54.302;10.064;2023-05-23T00:41:14;101055.53;;;14.71;75.68
3654;BME280;70277;54.302;10.064;2023-05-23T00:43:43;101052.28;;;14.84;75.61
3654;BME280;70277;54.302;10.064;2023-05-23T00:46:10;101064.50;;;14.66;75.71
3654;BME280;70277;54.302;10.064;2023-05-23T00:48:37;101053.34;;;14.63;75.56
3654;BME280;70277;54.302;10.064;2023-05-23T00:51:04;101065.03;;;14.53;75.59
3654;BME280;70277;54.302;10.064;2023-05-23T00:53:31;101072.09;;;14.54;76.44
3654;BME280;70277;54.302;10.064;2023-05-23T00:55:57;101077.00;;;14.57;76.56
3654;BME280;70277;54.302;10.064;2023-05-23T00:58:24;101089.59;;;14.68;76.60
3654;BME280;70277;54.302;10.064;2023-05-23T01:00:51;101077.06;;;14.77;76.40
3654;BME280;70277;54.302;10.064;2023-05-23T01:03:19;101074.91;;;14.79;76.20
3654;BME280;70277;54.302;10.064;2023-05-23T01:05:46;101074.63;;;14.81;76.17
3654;BME280;70277;54.302;10.064;2023-05-23T01:08:13;101068.88;;;14.67;76.63
3654;BME280;70277;54.302;10.064;2023-05-23T01:10:41;101069.41;;;14.69;75.70
3654;BME280;70277;54.302;10.064;2023-05-23T01:13:31;101067.75;;;14.58;76.20
3654;BME280;70277;54.302;10.064;2023-05-23T01:18:41;101048.16;;;14.66;76.05
3654;BME280;70277;54.302;10.064;2023-05-23T01:21:16;101044.09;;;14.74;76.02
3654;BME280;70277;54.302;10.064;2023-05-23T01:29:07;101040.00;;;14.71;76.33
3654;BME280;70277;54.302;10.064;2023-05-23T01:31:41;101033.16;;;14.64;75.76
3654;BME280;70277;54.302;10.064;2023-05-23T01:34:08;101027.16;;;14.51;76.05
3654;BME280;70277;54.302;10.064;2023-05-23T01:36:40;101030.91;;;14.45;75.99
3654;BME280;70277;54.302;10.064;2023-05-23T01:39:07;101026.84;;;14.48;76.16
3654;BME280;70277;54.302;10.064;2023-05-23T01:41:35;101032.84;;;14.50;76.25
3654;BME280;70277;54.302;10.064;2023-05-23T01:44:02;101033.63;;;14.45;76.65
3654;BME280;70277;54.302;10.064;2023-05-23T01:46:29;101033.34;;;14.37;75.78
3654;BME280;70277;54.302;10.064;2023-05-23T01:48:58;101022.94;;;14.18;77.35
3654;BME280;70277;54.302;10.064;2023-05-23T01:51:26;101027.31;;;14.24;76.49
3654;BME280;70277;54.302;10.064;2023-05-23T01:53:53;101030.56;;;14.21;77.05
3654;BME280;70277;54.302;10.064;2023-05-23T01:56:21;101030.56;;;14.21;77.00
3654;BME280;70277;54.302;10.064;2023-05-23T01:58:47;101027.03;;;14.21;76.69
3654;BME280;70277;54.302;10.064;2023-05-23T02:01:14;101033.00;;;14.18;76.17
3654;BME280;70277;54.302;10.064;2023-05-23T02:03:41;101019.34;;;14.02;76.28
3654;BME280;70277;54.302;10.064;2023-05-23T02:06:07;101024.78;;;14.02;76.39
3654;BME280;70277;54.302;10.064;2023-05-23T02:08:34;101022.06;;;14.02;76.67
3654;BME280;70277;54.302;10.064;2023-05-23T02:11:00;101030.47;;;14.01;76.68
3654;BME280;70277;54.302;10.064;2023-05-23T02:13:27;101024.47;;;13.94;77.41
3654;BME280;70277;54.302;10.064;2023-05-23T02:15:53;101029.09;;;13.98;77.21
3654;BME280;70277;54.302;10.064;2023-05-23T02:18:20;101018.78;;;14.00;76.84
3654;BME280;70277;54.302;10.064;2023-05-23T02:20:46;101026.56;;;13.81;77.60
3654;BME280;70277;54.302;10.064;2023-05-23T02:23:12;101025.78;;;13.86;77.61
3654;BME280;70277;54.302;10.064;2023-05-23T02:25:39;101019.25;;;13.87;77.45
3654;BME280;70277;54.302;10.064;2023-05-23T02:28:06;101030.66;;;13.84;77.05
3654;BME280;70277;54.302;10.064;2023-05-23T02:30:32;101029.06;;;13.88;77.16
3654;BME280;70277;54.302;10.064;2023-05-23T02:33:03;101029.88;;;13.88;76.83
3654;BME280;70277;54.302;10.064;2023-05-23T02:35:30;101025.28;;;13.94;76.70
3654;BME280;70277;54.302;10.064;2023-05-23T02:37:56;101025.31;;;14.04;76.37
3654;BME280;70277;54.302;10.064;2023-05-23T02:40:23;101028.06;;;14.09;76.58
3654;BME280;70277;54.302;10.064;2023-05-23T02:42:49;101016.25;;;13.88;76.74
3654;BME280;70277;54.302;10.064;2023-05-23T02:45:22;101011.91;;;13.87;76.41
3654;BME280;70277;54.302;10.064;2023-05-23T02:47:49;101012.50;;;14.00;76.64
3654;BME280;70277;54.302;10.064;2023-05-23T02:50:15;101011.72;;;13.99;77.02
3654;BME280;70277;54.302;10.064;2023-05-23T02:52:42;101008.09;;;13.88;76.80
3654;BME280;70277;54.302;10.064;2023-05-23T02:55:09;101010.81;;;13.88;77.84
3654;BME280;70277;54.302;10.064;2023-05-23T02:57:35;101015.19;;;13.95;77.34
3654;BME280;70277;54.302;10.064;2023-05-23T03:00:02;101028.84;;;14.00;77.65
3654;BME280;70277;54.302;10.064;2023-05-23T03:02:28;101018.69;;;13.90;77.42
3654;BME280;70277;54.302;10.064;2023-05-23T03:04:56;101020.84;;;13.83;77.73
3654;BME280;70277;54.302;10.064;2023-05-23T03:07:23;101014.63;;;13.87;77.50
3654;BME280;70277;54.302;10.064;2023-05-23T03:09:54;101014.63;;;13.93;76.70
3654;BME280;70277;54.302;10.064;2023-05-23T03:12:21;101021.72;;;13.88;77.47
3654;BME280;70277;54.302;10.064;2023-05-23T03:14:47;101019.25;;;13.87;77.58
3654;BME280;70277;54.302;10.064;2023-05-23T03:17:13;101005.91;;;13.85;77.79
3654;BME280;70277;54.302;10.064;2023-05-23T03:19:40;101016.50;;;13.87;78.24
3654;BME280;70277;54.302;10.064;2023-05-23T03:22:06;101010.25;;;13.81;77.98
3654;BME280;70277;54.302;10.064;2023-05-23T03:24:33;101007.25;;;13.83;77.86
3654;BME280;70277;54.302;10.064;2023-05-23T03:26:59;101010.81;;;13.88;77.78
3654;BME280;70277;54.302;10.064;2023-05-23T03:29:27;101007.03;;;13.95;77.87
3654;BME280;70277;54.302;10.064;2023-05-23T03:31:53;101006.72;;;13.86;78.60
3654;BME280;70277;54.302;10.064;2023-05-23T03:34:20;101008.34;;;13.82;78.71
3654;BME280;70277;54.302;10.064;2023-05-23T03:36:49;101010.25;;;13.81;78.93
3654;BME280;70277;54.302;10.064;2023-05-23T03:39:16;101017.97;;;14.00;78.19
3654;BME280;70277;54.302;10.064;2023-05-23T03:41:42;101024.47;;;13.99;78.54
3654;BME280;70277;54.302;10.064;2023-05-23T03:44:09;101025.63;;;14.08;77.64
3654;BME280;70277;54.302;10.064;2023-05-23T03:46:35;101019.94;;;14.15;77.87
3654;BME280;70277;54.302;10.064;2023-05-23T03:49:02;101014.75;;;14.13;76.71
3654;BME280;70277;54.302;10.064;2023-05-23T03:51:28;101029.50;;;14.27;76.78
3654;BME280;70277;54.302;10.064;2023-05-23T03:53:55;101023.19;;;14.17;77.01
3654;BME280;70277;54.302;10.064;2023-05-23T03:56:21;101019.13;;;14.14;77.14
3654;BME280;70277;54.302;10.064;2023-05-23T03:58:48;101017.75;;;14.22;76.79
3654;BME280;70277;54.302;10.064;2023-05-23T04:01:14;101017.25;;;14.30;76.10
3654;BME280;70277;54.302;10.064;2023-05-23T04:03:41;101021.94;;;14.45;75.73
3654;BME280;70277;54.302;10.064;2023-05-23T04:06:07;101029.50;;;14.27;76.16
3654;BME280;70277;54.302;10.064;2023-05-23T04:08:34;101028.81;;;13.95;77.34
3654;BME280;70277;54.302;10.064;2023-05-23T04:11:01;101038.00;;;13.78;78.06
3654;BME280;70277;54.302;10.064;2023-05-23T04:13:27;101045.50;;;13.66;77.81
3654;BME280;70277;54.302;10.064;2023-05-23T04:15:56;101044.78;;;13.76;77.49
3654;BME280;70277;54.302;10.064;2023-05-23T04:18:22;101039.91;;;13.83;77.76
3654;BME280;70277;54.302;10.064;2023-05-23T04:20:49;101032.56;;;13.83;77.34
3654;BME280;70277;54.302;10.064;2023-05-23T04:23:15;101026.09;;;13.95;77.06
3654;BME280;70277;54.302;10.064;2023-05-23T04:25:42;101043.44;;;13.78;77.72
3654;BME280;70277;54.302;10.064;2023-05-23T04:28:10;101038.88;;;13.94;77.17
3654;BME280;70277;54.302;10.064;2023-05-23T04:30:37;101032.25;;;13.80;77.81
3654;BME280;70277;54.302;10.064;2023-05-23T04:33:03;101034.94;;;13.70;78.22
3654;BME280;70277;54.302;10.064;2023-05-23T04:35:30;101034.38;;;13.68;77.73
3654;BME280;70277;54.302;10.064;2023-05-23T04:37:59;101034.00;;;13.54;78.34
3654;BME280;70277;54.302;10.064;2023-05-23T04:40:28;101035.34;;;13.51;78.72
3654;BME280;70277;54.302;10.064;2023-05-23T04:42:54;101036.66;;;13.43;79.35
3654;BME280;70277;54.302;10.064;2023-05-23T04:45:22;101036.56;;;13.33;79.80
3654;BME280;70277;54.302;10.064;2023-05-23T04:47:48;101039.28;;;13.28;80.03
3654;BME280;70277;54.302;10.064;2023-05-23T04:50:15;101034.41;;;13.35;79.92
3654;BME280;70277;54.302;10.064;2023-05-23T04:52:41;101033.31;;;13.31;80.07
3654;BME280;70277;54.302;10.064;2023-05-23T04:55:08;101040.94;;;13.34;79.54
3654;BME280;70277;54.302;10.064;2023-05-23T04:57:35;101032.88;;;13.17;80.45
3654;BME280;70277;54.302;10.064;2023-05-23T05:00:03;101033.00;;;13.28;79.97
3654;BME280;70277;54.302;10.064;2023-05-23T05:02:36;101035.53;;;13.39;80.20
3654;BME280;70277;54.302;10.064;2023-05-23T05:05:03;101041.75;;;13.35;79.71
3654;BME280;70277;54.302;10.064;2023-05-23T05:07:30;101051.78;;;13.29;79.91
3654;BME280;70277;54.302;10.064;2023-05-23T05:09:56;101062.19;;;13.42;79.16
3654;BME280;70277;54.302;10.064;2023-05-23T05:12:26;101051.84;;;13.39;79.96
3654;BME280;70277;54.302;10.064;2023-05-23T05:14:52;101065.47;;;13.45;79.57
3654;BME280;70277;54.302;10.064;2023-05-23T05:17:19;101061.16;;;13.49;79.56
3654;BME280;70277;54.302;10.064;2023-05-23T05:19:45;101063.84;;;13.43;79.16
3654;BME280;70277;54.302;10.064;2023-05-23T05:22:12;101068.31;;;13.60;80.52
3654;BME280;70277;54.302;10.064;2023-05-23T05:24:38;101064.53;;;13.61;80.18
3654;BME280;70277;54.302;10.064;2023-05-23T05:27:06;101058.31;;;13.71;80.13
3654;BME280;70277;54.302;10.064;2023-05-23T05:29:35;101049.34;;;13.70;78.72
3654;BME280;70277;54.302;10.064;2023-05-23T05:32:01;101047.81;;;13.47;79.22
3654;BME280;70277;54.302;10.064;2023-05-23T05:34:28;101047.88;;;13.52;79.42
3654;BME280;70277;54.302;10.064;2023-05-23T05:36:55;101052.09;;;13.75;79.74
3654;BME280;70277;54.302;10.064;2023-05-23T05:39:23;101052.97;;;13.86;79.52
3654;BME280;70277;54.302;10.064;2023-05-23T05:41:51;101058.78;;;14.00;79.22
3654;BME280;70277;54.302;10.064;2023-05-23T05:44:17;101061.00;;;14.08;79.20
3654;BME280;70277;54.302;10.064;2023-05-23T05:46:44;101069.63;;;13.95;79.02
3654;BME280;70277;54.302;10.064;2023-05-23T05:49:10;101076.25;;;14.09;78.59
3654;BME280;70277;54.302;10.064;2023-05-23T05:51:37;101078.16;;;14.08;78.48
3654;BME280;70277;54.302;10.064;2023-05-23T05:54:04;101089.44;;;13.90;78.69
3654;BME280;70277;54.302;10.064;2023-05-23T05:56:31;101088.94;;;13.93;78.76
3654;BME280;70277;54.302;10.064;2023-05-23T05:58:57;101097.00;;;13.78;78.86
3654;BME280;70277;54.302;10.064;2023-05-23T06:01:24;101094.69;;;13.59;79.51
3654;BME280;70277;54.302;10.064;2023-05-23T06:03:52;101099.34;;;13.64;80.16
3654;BME280;70277;54.302;10.064;2023-05-23T06:06:18;101099.31;;;13.59;80.14
3654;BME280;70277;54.302;10.064;2023-05-23T06:08:45;101111.81;;;13.60;79.79
3654;BME280;70277;54.302;10.064;2023-05-23T06:11:11;101106.59;;;13.53;79.98
3654;BME280;70277;54.302;10.064;2023-05-23T06:13:38;101109.31;;;13.53;79.93
3654;BME280;70277;54.302;10.064;2023-05-23T06:16:04;101119.34;;;13.48;79.88
3654;BME280;70277;54.302;10.064;2023-05-23T06:18:32;101120.94;;;13.43;80.26
3654;BME280;70277;54.302;10.064;2023-05-23T06:20:59;101125.88;;;13.47;80.16
3654;BME280;70277;54.302;10.064;2023-05-23T06:23:25;101127.03;;;13.56;80.18
3654;BME280;70277;54.302;10.064;2023-05-23T06:25:51;101127.63;;;13.63;79.54
3654;BME280;70277;54.302;10.064;2023-05-23T06:28:18;101129.69;;;13.51;79.07
3654;BME280;70277;54.302;10.064;2023-05-23T06:30:44;101128.59;;;13.47;79.90
3654;BME280;70277;54.302;10.064;2023-05-23T06:33:11;101131.94;;;13.59;79.52
3654;BME280;70277;54.302;10.064;2023-05-23T06:35:38;101141.19;;;13.58;79.28
3654;BME280;70277;54.302;10.064;2023-05-23T06:38:05;101142.03;;;13.63;79.83
3654;BME280;70277;54.302;10.064;2023-05-23T06:40:31;101141.78;;;13.65;79.74
3654;BME280;70277;54.302;10.064;2023-05-23T06:42:57;101147.34;;;13.48;79.68
3654;BME280;70277;54.302;10.064;2023-05-23T06:45:24;101154.00;;;13.62;79.87
3654;BME280;70277;54.302;10.064;2023-05-23T06:47:51;101154.28;;;13.66;79.46
3654;BME280;70277;54.302;10.064;2023-05-23T06:50:17;101166.84;;;13.67;80.19
3654;BME280;70277;54.302;10.064;2023-05-23T06:52:45;101160.66;;;13.77;79.84
3654;BME280;70277;54.302;10.064;2023-05-23T06:55:12;101156.34;;;13.86;79.20
3654;BME280;70277;54.302;10.064;2023-05-23T06:57:43;101166.66;;;13.84;79.53
3654;BME280;70277;54.302;10.064;2023-05-23T07:00:10;101155.44;;;13.70;79.95
3654;BME280;70277;54.302;10.064;2023-05-23T07:02:38;101160.34;;;13.73;79.58
3654;BME280;70277;54.302;10.064;2023-05-23T07:05:05;101162.97;;;13.63;78.31
3654;BME280;70277;54.302;10.064;2023-05-23T07:07:32;101165.91;;;13.56;79.09
3654;BME280;70277;54.302;10.064;2023-05-23T07:09:58;101168.50;;;13.73;79.37
3654;BME280;70277;54.302;10.064;2023-05-23T07:12:25;101173.56;;;13.59;79.63
3654;BME280;70277;54.302;10.064;2023-05-23T07:14:51;101178.59;;;13.46;80.22
3654;BME280;70277;54.302;10.064;2023-05-23T07:17:18;101171.44;;;13.39;80.09
3654;BME280;70277;54.302;10.064;2023-05-23T07:19:44;101172.59;;;13.21;80.49
3654;BME280;70277;54.302;10.064;2023-05-23T07:22:11;101169.66;;;13.01;80.49
3654;BME280;70277;54.302;10.064;2023-05-23T07:24:38;101173.59;;;13.10;81.24
3654;BME280;70277;54.302;10.064;2023-05-23T07:27:04;101183.47;;;13.21;81.16
3654;BME280;70277;54.302;10.064;2023-05-23T07:29:32;101183.09;;;13.13;81.31
3654;BME280;70277;54.302;10.064;2023-05-23T07:31:58;101184.13;;;13.07;81.77
3654;BME280;70277;54.302;10.064;2023-05-23T07:34:25;101178.59;;;12.96;82.23
3654;BME280;70277;54.302;10.064;2023-05-23T07:36:52;101186.31;;;13.05;82.53
3654;BME280;70277;54.302;10.064;2023-05-23T07:39:18;101180.34;;;13.08;82.23
3654;BME280;70277;54.302;10.064;2023-05-23T07:41:47;101196.16;;;13.11;82.24
3654;BME280;70277;54.302;10.064;2023-05-23T07:44:15;101191.25;;;13.13;82.70
3654;BME280;70277;54.302;10.064;2023-05-23T07:46:41;101202.59;;;13.05;82.45
3654;BME280;70277;54.302;10.064;2023-05-23T07:49:08;101207.47;;;13.03;82.68
3654;BME280;70277;54.302;10.064;2023-05-23T07:51:34;101207.66;;;12.74;82.76
3654;BME280;70277;54.302;10.064;2023-05-23T07:54:01;101214.59;;;12.65;82.87
3654;BME280;70277;54.302;10.064;2023-05-23T07:56:28;101222.31;;;12.73;82.97
3654;BME280;70277;54.302;10.064;2023-05-23T07:58:54;101210.94;;;12.76;82.62
3654;BME280;70277;54.302;10.064;2023-05-23T08:01:20;101223.81;;;12.64;83.01
3654;BME280;70277;54.302;10.064;2023-05-23T08:03:47;101217.88;;;12.67;83.16
3654;BME280;70277;54.302;10.064;2023-05-23T08:06:14;101230.53;;;12.78;82.53
3654;BME280;70277;54.302;10.064;2023-05-23T08:08:40;101218.66;;;12.84;82.11
3654;BME280;70277;54.302;10.064;2023-05-23T08:11:08;101224.59;;;12.81;82.31
3654;BME280;70277;54.302;10.064;2023-05-23T08:13:35;101219.28;;;12.91;82.44
3654;BME280;70277;54.302;10.064;2023-05-23T08:16:02;101219.16;;;13.03;81.63
3654;BME280;70277;54.302;10.064;2023-05-23T08:18:28;101221.34;;;13.06;82.15
3654;BME280;70277;54.302;10.064;2023-05-23T08:20:56;101231.00;;;13.19;81.62
3654;BME280;70277;54.302;10.064;2023-05-23T08:23:22;101231.50;;;13.16;81.83
3654;BME280;70277;54.302;10.064;2023-05-23T08:25:49;101228.63;;;13.01;81.99
3654;BME280;70277;54.302;10.064;2023-05-23T08:28:16;101240.69;;;13.10;81.86
3654;BME280;70277;54.302;10.064;2023-05-23T08:30:42;101252.03;;;13.02;82.28
3654;BME280;70277;54.302;10.064;2023-05-23T08:33:09;101254.53;;;12.86;82.51
3654;BME280;70277;54.302;10.064;2023-05-23T08:35:36;101246.59;;;12.63;83.21
3654;BME280;70277;54.302;10.064;2023-05-23T08:38:05;101259.22;;;12.52;83.40
3654;BME280;70277;54.302;10.064;2023-05-23T08:40:35;101259.22;;;12.52;83.31
3654;BME280;70277;54.302;10.064;2023-05-23T08:43:02;101266.56;;;12.51;83.23
3654;BME280;70277;54.302;10.064;2023-05-23T08:45:29;101266.00;;;12.16;83.27
3654;BME280;70277;54.302;10.064;2023-05-23T08:47:59;101274.66;;;11.84;83.87
3654;BME280;70277;54.302;10.064;2023-05-23T08:50:27;101260.06;;;11.73;84.48
3654;BME280;70277;54.302;10.064;2023-05-23T08:52:57;101281.81;;;11.61;83.81
3654;BME280;70277;54.302;10.064;2023-05-23T08:55:26;101281.44;;;11.70;84.53
3654;BME280;70277;54.302;10.064;2023-05-23T08:57:59;101285.22;;;11.69;83.86
3654;BME280;70277;54.302;10.064;2023-05-23T09:00:26;101292.34;;;11.58;83.78
3654;BME280;70277;54.302;10.064;2023-05-23T09:02:53;101298.50;;;11.42;83.39
3654;BME280;70277;54.302;10.064;2023-05-23T09:05:21;101296.53;;;11.37;83.55
3654;BME280;70277;54.302;10.064;2023-05-23T09:07:48;101294.16;;;11.41;84.22
3654;BME280;70277;54.302;10.064;2023-05-23T09:10:16;101307.56;;;11.47;83.90
3654;BME280;70277;54.302;10.064;2023-05-23T09:12:45;101307.09;;;11.50;84.19
3654;BME280;70277;54.302;10.064;2023-05-23T09:15:12;101305.56;;;11.54;83.57
3654;BME280;70277;54.302;10.064;2023-05-23T09:17:39;101320.56;;;11.45;83.70
3654;BME280;70277;54.302;10.064;2023-05-23T09:20:15;101325.84;;;11.52;83.65
3654;BME280;70277;54.302;10.064;2023-05-23T09:22:45;101325.56;;;11.53;83.67
3654;BME280;70277;54.302;10.064;2023-05-23T09:25:13;101335.88;;;11.39;84.19
3654;BME280;70277;54.302;10.064;2023-05-23T09:27:42;101329.75;;;11.32;84.95
3654;BME280;70277;54.302;10.064;2023-05-23T09:30:13;101335.66;;;11.29;84.08
3654;BME280;70277;54.302;10.064;2023-05-23T09:32:40;101341.41;;;11.45;84.45
3654;BME280;70277;54.302;10.064;2023-05-23T09:35:08;101328.25;;;11.36;84.16
3654;BME280;70277;54.302;10.064;2023-05-23T09:37:41;101323.59;;;11.49;83.98
3654;BME280;70277;54.302;10.064;2023-05-23T09:40:09;101326.00;;;11.62;83.78
3654;BME280;70277;54.302;10.064;2023-05-23T09:42:47;101333.53;;;11.72;83.61
3654;BME280;70277;54.302;10.064;2023-05-23T09:45:15;101333.97;;;11.80;83.02
3654;BME280;70277;54.302;10.064;2023-05-23T09:47:48;101323.94;;;11.93;84.07
3654;BME280;70277;54.302;10.064;2023-05-23T09:50:17;101319.78;;;12.19;82.80
3654;BME280;70277;54.302;10.064;2023-05-23T09:52:43;101325.38;;;12.29;81.31
3654;BME280;70277;54.302;10.064;2023-05-23T09:55:10;101320.75;;;12.29;81.41
3654;BME280;70277;54.302;10.064;2023-05-23T09:57:39;101324.88;;;12.32;80.99
3654;BME280;70277;54.302;10.064;2023-05-23T10:00:08;101322.00;;;12.56;81.27
3654;BME280;70277;54.302;10.064;2023-05-23T10:08:01;101333.06;;;11.75;81.04
3654;BME280;70277;54.302;10.064;2023-05-23T10:10:31;101352.78;;;11.58;80.77
3654;BME280;70277;54.302;10.064;2023-05-23T10:13:01;101358.94;;;11.54;81.27
3654;BME280;70277;54.302;10.064;2023-05-23T10:15:34;101354.22;;;11.49;80.26
3654;BME280;70277;54.302;10.064;2023-05-23T10:18:20;101367.06;;;11.66;80.36
3654;BME280;70277;54.302;10.064;2023-05-23T10:20:51;101359.78;;;11.54;79.13
3654;BME280;70277;54.302;10.064;2023-05-23T10:23:19;101368.31;;;12.03;79.35
3654;BME280;70277;54.302;10.064;2023-05-23T10:25:47;101366.31;;;12.44;79.35
3654;BME280;70277;54.302;10.064;2023-05-23T10:28:14;101365.81;;;12.47;76.40
3654;BME280;70277;54.302;10.064;2023-05-23T10:30:41;101357.44;;;12.66;77.38
3654;BME280;70277;54.302;10.064;2023-05-23T10:33:08;101373.00;;;12.53;76.54
3654;BME280;70277;54.302;10.064;2023-05-23T10:35:41;101365.66;;;12.71;77.60
3654;BME280;70277;54.302;10.064;2023-05-23T10:38:39;101370.09;;;12.77;77.31
3654;BME280;70277;54.302;10.064;2023-05-23T10:41:18;101358.59;;;12.70;75.81
3654;BME280;70277;54.302;10.064;2023-05-23T10:43:55;101378.34;;;12.82;74.99
3654;BME280;70277;54.302;10.064;2023-05-23T10:46:52;101374.88;;;12.87;75.54
3654;BME280;70277;54.302;10.064;2023-05-23T10:49:20;101373.59;;;13.11;76.08
3654;BME280;70277;54.302;10.064;2023-05-23T10:51:50;101383.63;;;12.72;73.05
3654;BME280;70277;54.302;10.064;2023-05-23T10:54:19;101381.47;;;12.40;73.60
3654;BME280;70277;54.302;10.064;2023-05-23T10:56:47;101395.41;;;12.15;75.20
3654;BME280;70277;54.302;10.064;2023-05-23T10:59:28;101394.41;;;12.04;74.86
3654;BME280;70277;54.302;10.064;2023-05-23T11:01:54;101395.66;;;12.14;76.02
3654;BME280;70277;54.302;10.064;2023-05-23T11:04:25;101398.09;;;12.15;74.62
3654;BME280;70277;54.302;10.064;2023-05-23T11:06:54;101403.56;;;12.32;73.71
3654;BME280;70277;54.302;10.064;2023-05-23T11:09:22;101390.50;;;12.63;73.08
3654;BME280;70277;54.302;10.064;2023-05-23T11:11:53;101385.53;;;13.27;71.70
3654;BME280;70277;54.302;10.064;2023-05-23T11:16:56;101397.00;;;14.87;69.25
3654;BME280;70277;54.302;10.064;2023-05-23T11:19:24;101403.03;;;14.56;66.50
3654;BME280;70277;54.302;10.064;2023-05-23T11:24:22;101391.03;;;15.32;62.49
3654;BME280;70277;54.302;10.064;2023-05-23T11:26:54;101406.03;;;15.92;61.26
3654;BME280;70277;54.302;10.064;2023-05-23T11:29:28;101400.91;;;16.17;59.76
3654;BME280;70277;54.302;10.064;2023-05-23T11:31:55;101402.00;;;16.26;60.29
3654;BME280;70277;54.302;10.064;2023-05-23T11:34:24;101407.66;;;15.88;60.54
3654;BME280;70277;54.302;10.064;2023-05-23T11:36:54;101402.75;;;15.85;61.02
3654;BME280;70277;54.302;10.064;2023-05-23T11:39:21;101408.00;;;16.12;59.48
3654;BME280;70277;54.302;10.064;2023-05-23T11:42:14;101406.38;;;16.22;56.25
3654;BME280;70277;54.302;10.064;2023-05-23T11:44:40;101398.59;;;15.73;59.53
3654;BME280;70277;54.302;10.064;2023-05-23T11:47:07;101407.13;;;15.34;58.74
3654;BME280;70277;54.302;10.064;2023-05-23T11:49:35;101402.97;;;15.26;57.83
3654;BME280;70277;54.302;10.064;2023-05-23T11:52:04;101399.06;;;15.07;58.42
3654;BME280;70277;54.302;10.064;2023-05-23T11:54:31;101404.72;;;14.95;58.46
3654;BME280;70277;54.302;10.064;2023-05-23T11:56:58;101415.22;;;15.18;59.87
3654;BME280;70277;54.302;10.064;2023-05-23T11:59:25;101420.88;;;15.54;56.83
3654;BME280;70277;54.302;10.064;2023-05-23T12:01:54;101412.88;;;14.95;57.66
3654;BME280;70277;54.302;10.064;2023-05-23T12:04:21;101421.50;;;14.82;57.05
3654;BME280;70277;54.302;10.064;2023-05-23T12:06:48;101415.22;;;14.81;58.67
3654;BME280;70277;54.302;10.064;2023-05-23T12:09:15;101417.19;;;14.86;56.95
3654;BME280;70277;54.302;10.064;2023-05-23T12:11:43;101418.22;;;14.79;57.32
3654;BME280;70277;54.302;10.064;2023-05-23T12:14:17;101427.13;;;14.70;57.25
3654;BME280;70277;54.302;10.064;2023-05-23T12:16:44;101432.38;;;14.76;58.59
3654;BME280;70277;54.302;10.064;2023-05-23T12:19:13;101416.41;;;14.58;58.70
3654;BME280;70277;54.302;10.064;2023-05-23T12:21:47;101417.22;;;14.91;57.75
3654;BME280;70277;54.302;10.064;2023-05-23T12:24:21;101425.94;;;14.93;58.03
3654;BME280;70277;54.302;10.064;2023-05-23T12:26:59;101427.81;;;14.55;57.88
3654;BME280;70277;54.302;10.064;2023-05-23T12:29:32;101427.00;;;14.54;57.05
3654;BME280;70277;54.302;10.064;2023-05-23T12:32:02;101431.88;;;14.85;58.21
3654;BME280;70277;54.302;10.064;2023-05-23T12:34:29;101420.91;;;15.12;58.88
3654;BME280;70277;54.302;10.064;2023-05-23T12:36:56;101422.97;;;15.37;58.77
3654;BME280;70277;54.302;10.064;2023-05-23T12:39:43;101425.50;;;15.11;57.15
3654;BME280;70277;54.302;10.064;2023-05-23T12:42:10;101428.19;;;15.01;57.16
3654;BME280;70277;54.302;10.064;2023-05-23T12:44:39;101431.00;;;15.59;56.09
3654;BME280;70277;54.302;10.064;2023-05-23T12:47:06;101436.09;;;16.08;55.90
3654;BME280;70277;54.302;10.064;2023-05-23T12:49:33;101433.44;;;15.60;56.28
3654;BME280;70277;54.302;10.064;2023-05-23T12:51:59;101432.69;;;15.17;55.25
3654;BME280;70277;54.302;10.064;2023-05-23T12:54:26;101433.28;;;15.35;57.28
3654;BME280;70277;54.302;10.064;2023-05-23T12:56:52;101429.00;;;15.49;53.79
3654;BME280;70277;54.302;10.064;2023-05-23T12:59:19;101431.88;;;15.69;54.04
3654;BME280;70277;54.302;10.064;2023-05-23T13:01:45;101430.66;;;15.45;55.59
3654;BME280;70277;54.302;10.064;2023-05-23T13:04:12;101439.94;;;15.07;55.19
3654;BME280;70277;54.302;10.064;2023-05-23T13:06:38;101447.91;;;14.81;55.08
3654;BME280;70277;54.302;10.064;2023-05-23T13:09:05;101443.97;;;14.94;55.82
3654;BME280;70277;54.302;10.064;2023-05-23T13:11:31;101445.88;;;15.41;53.93
3654;BME280;70277;54.302;10.064;2023-05-23T13:13:58;101447.47;;;15.32;55.11